sensor_id;sensor_type;location;lat;lon;timestamp;pressure;altitude;pressure_sealevel;temperature;humidity
84865;BME280;75122;41.650;25.368;2024-01-15T00:01:16;98149.38;;;0.71;61.43
84865;BME280;75122;41.650;25.368;2024-01-15T00:03:42;98151.75;;;0.73;61.33
84865;BME280;75122;41.650;25.368;2024-01-15T00:06:07;98150.53;;;0.69;61.66
84865;BME280;75122;41.650;25.368;2024-01-15T00:08:33;98152.84;;;0.64;61.89
84865;BME280;75122;41.650;25.368;2024-01-15T00:10:58;98141.16;;;0.55;62.25
84865;BME280;75122;41.650;25.368;2024-01-15T00:13:23;98142.91;;;0.54;62.06
84865;BME280;75122;41.650;25.368;2024-01-15T00:15:49;98138.03;;;0.38;63.63
84865;BME280;75122;41.650;25.368;2024-01-15T00:18:14;98134.88;;;0.36;63.87
84865;BME280;75122;41.650;25.368;2024-01-15T00:20:40;98133.13;;;0.36;64.06
84865;BME280;75122;41.650;25.368;2024-01-15T00:23:05;98124.66;;;0.36;63.93
84865;BME280;75122;41.650;25.368;2024-01-15T00:25:30;98120.88;;;-0.33;65.71
84865;BME280;75122;41.650;25.368;2024-01-15T00:27:56;98126.38;;;-0.74;67.04
84865;BME280;75122;41.650;25.368;2024-01-15T00:30:21;98128.56;;;-0.71;66.49
84865;BME280;75122;41.650;25.368;2024-01-15T00:32:47;98133.59;;;-0.63;65.75
84865;BME280;75122;41.650;25.368;2024-01-15T00:35:12;98132.56;;;-0.54;65.24
84865;BME280;75122;41.650;25.368;2024-01-15T00:37:38;98129.41;;;-0.41;64.46
84865;BME280;75122;41.650;25.368;2024-01-15T00:40:04;98127.38;;;-0.31;63.79
84865;BME280;75122;41.650;25.368;2024-01-15T00:42:31;98125.78;;;-0.32;64.37
84865;BME280;75122;41.650;25.368;2024-01-15T00:44:56;98125.19;;;-0.34;65.52
84865;BME280;75122;41.650;25.368;2024-01-15T00:47:21;98119.56;;;-0.29;65.82
84865;BME280;75122;41.650;25.368;2024-01-15T00:49:47;98117.81;;;-0.29;64.45
84865;BME280;75122;41.650;25.368;2024-01-15T00:52:12;98113.59;;;-0.22;63.40
84865;BME280;75122;41.650;25.368;2024-01-15T00:54:38;98122.38;;;-0.24;63.59
84865;BME280;75122;41.650;25.368;2024-01-15T00:57:05;98126.16;;;-0.20;62.50
84865;BME280;75122;41.650;25.368;2024-01-15T00:59:30;98114.38;;;-0.21;62.82
84865;BME280;75122;41.650;25.368;2024-01-15T01:01:56;98111.47;;;-0.18;62.84
84865;BME280;75122;41.650;25.368;2024-01-15T01:04:21;98113.50;;;-0.14;62.44
84865;BME280;75122;41.650;25.368;2024-01-15T01:06:46;98122.47;;;-0.18;63.05
84865;BME280;75122;41.650;25.368;2024-01-15T01:09:12;98124.75;;;-0.23;63.15
84865;BME280;75122;41.650;25.368;2024-01-15T01:11:37;98113.59;;;-0.22;62.21
84865;BME280;75122;41.650;25.368;2024-01-15T01:14:03;98114.63;;;-0.16;62.52
84865;BME280;75122;41.650;25.368;2024-01-15T01:16:28;98117.34;;;-0.18;63.25
84865;BME280;75122;41.650;25.368;2024-01-15T01:18:54;98117.44;;;-0.11;63.48
84865;BME280;75122;41.650;25.368;2024-01-15T01:21:19;98105.66;;;-0.12;62.64
84865;BME280;75122;41.650;25.368;2024-01-15T01:23:44;98113.06;;;-0.17;63.08
84865;BME280;75122;41.650;25.368;2024-01-15T01:26:10;98123.78;;;-0.22;62.98
84865;BME280;75122;41.650;25.368;2024-01-15T01:28:35;98119.84;;;-0.24;63.03
84865;BME280;75122;41.650;25.368;2024-01-15T01:31:01;98126.16;;;-0.20;61.81
84865;BME280;75122;41.650;25.368;2024-01-15T01:33:26;98122.19;;;-0.23;62.57
84865;BME280;75122;41.650;25.368;2024-01-15T01:35:51;98124.75;;;-0.23;63.10
84865;BME280;75122;41.650;25.368;2024-01-15T01:38:18;98120.88;;;-0.19;63.33
84865;BME280;75122;41.650;25.368;2024-01-15T01:40:43;98125.53;;;-0.22;64.03
84865;BME280;75122;41.650;25.368;2024-01-15T01:43:09;98121.22;;;-0.22;62.98
84865;BME280;75122;41.650;25.368;2024-01-15T01:45:35;98112.63;;;-0.21;62.73
84865;BME280;75122;41.650;25.368;2024-01-15T01:48:00;98111.91;;;-0.29;63.15
84865;BME280;75122;41.650;25.368;2024-01-15T01:50:26;98108.22;;;-0.27;63.08
84865;BME280;75122;41.650;25.368;2024-01-15T01:52:51;98108.56;;;-0.30;63.64
84865;BME280;75122;41.650;25.368;2024-01-15T01:55:18;98098.03;;;-0.41;64.33
84865;BME280;75122;41.650;25.368;2024-01-15T01:57:44;98096.16;;;-0.48;64.80
84865;BME280;75122;41.650;25.368;2024-01-15T02:00:10;98101.63;;;-0.51;64.95
84865;BME280;75122;41.650;25.368;2024-01-15T02:02:36;98096.69;;;-0.52;65.01
84865;BME280;75122;41.650;25.368;2024-01-15T02:05:03;98089.06;;;-0.67;64.98
84865;BME280;75122;41.650;25.368;2024-01-15T02:07:29;98094.16;;;-0.67;64.39
84865;BME280;75122;41.650;25.368;2024-01-15T02:09:54;98096.53;;;-0.65;63.49
84865;BME280;75122;41.650;25.368;2024-01-15T02:12:20;98101.53;;;-0.57;63.13
84865;BME280;75122;41.650;25.368;2024-01-15T02:14:45;98102.94;;;-0.69;65.42
84865;BME280;75122;41.650;25.368;2024-01-15T02:17:10;98093.72;;;-0.70;63.95
84865;BME280;75122;41.650;25.368;2024-01-15T02:19:36;98098.72;;;-0.62;63.50
84865;BME280;75122;41.650;25.368;2024-01-15T02:22:01;98090.81;;;-0.67;63.77
84865;BME280;75122;41.650;25.368;2024-01-15T02:24:27;98093.63;;;-0.62;62.14
84865;BME280;75122;41.650;25.368;2024-01-15T02:26:52;98087.06;;;-0.57;62.73
84865;BME280;75122;41.650;25.368;2024-01-15T02:29:18;98077.13;;;-0.66;62.05
84865;BME280;75122;41.650;25.368;2024-01-15T02:31:43;98078.88;;;-0.67;61.79
84865;BME280;75122;41.650;25.368;2024-01-15T02:34:09;98074.13;;;-0.70;63.05
84865;BME280;75122;41.650;25.368;2024-01-15T02:36:34;98079.19;;;-0.84;64.30
84865;BME280;75122;41.650;25.368;2024-01-15T02:38:59;98083.84;;;-0.88;64.60
84865;BME280;75122;41.650;25.368;2024-01-15T02:41:25;98081.28;;;-0.88;64.40
84865;BME280;75122;41.650;25.368;2024-01-15T02:43:50;98080.34;;;-0.87;64.88
84865;BME280;75122;41.650;25.368;2024-01-15T02:46:16;98075.41;;;-0.88;64.44
84865;BME280;75122;41.650;25.368;2024-01-15T02:48:41;98077.63;;;-0.85;64.40
84865;BME280;75122;41.650;25.368;2024-01-15T02:51:07;98075.06;;;-0.85;64.14
84865;BME280;75122;41.650;25.368;2024-01-15T02:53:32;98067.69;;;-0.80;64.50
84865;BME280;75122;41.650;25.368;2024-01-15T02:55:58;98059.59;;;-0.84;65.16
84865;BME280;75122;41.650;25.368;2024-01-15T02:58:23;98065.34;;;-0.82;64.28
84865;BME280;75122;41.650;25.368;2024-01-15T03:00:48;98069.72;;;-0.76;63.30
84865;BME280;75122;41.650;25.368;2024-01-15T03:03:14;98052.25;;;-0.79;63.31
84865;BME280;75122;41.650;25.368;2024-01-15T03:05:39;98049.63;;;-0.85;63.43
84865;BME280;75122;41.650;25.368;2024-01-15T03:08:05;98055.38;;;-0.91;63.54
84865;BME280;75122;41.650;25.368;2024-01-15T03:10:30;98065.03;;;-1.02;63.98
84865;BME280;75122;41.650;25.368;2024-01-15T03:12:56;98056.63;;;-1.02;63.62
84865;BME280;75122;41.650;25.368;2024-01-15T03:15:22;98054.50;;;-0.99;62.25
84865;BME280;75122;41.650;25.368;2024-01-15T03:17:47;98049.25;;;-0.97;62.29
84865;BME280;75122;41.650;25.368;2024-01-15T03:20:13;98054.16;;;-0.96;62.57
84865;BME280;75122;41.650;25.368;2024-01-15T03:22:38;98050.22;;;-0.98;62.83
84865;BME280;75122;41.650;25.368;2024-01-15T03:25:04;98050.66;;;-0.95;61.65
84865;BME280;75122;41.650;25.368;2024-01-15T03:27:30;98052.03;;;-0.92;62.14
84865;BME280;75122;41.650;25.368;2024-01-15T03:29:55;98056.53;;;-0.94;63.18
84865;BME280;75122;41.650;25.368;2024-01-15T03:32:21;98053.72;;;-0.99;63.54
84865;BME280;75122;41.650;25.368;2024-01-15T03:34:46;98049.31;;;-1.05;63.32
84865;BME280;75122;41.650;25.368;2024-01-15T03:37:13;98047.28;;;-1.10;63.97
84865;BME280;75122;41.650;25.368;2024-01-15T03:39:38;98051.94;;;-1.13;63.44
84865;BME280;75122;41.650;25.368;2024-01-15T03:42:04;98052.78;;;-1.21;63.80
84865;BME280;75122;41.650;25.368;2024-01-15T03:44:29;98050.25;;;-1.21;63.56
84865;BME280;75122;41.650;25.368;2024-01-15T03:46:55;98059.66;;;-1.21;63.61
84865;BME280;75122;41.650;25.368;2024-01-15T03:49:20;98058.66;;;-1.58;64.48
84865;BME280;75122;41.650;25.368;2024-01-15T03:51:45;98056.50;;;-1.46;63.54
84865;BME280;75122;41.650;25.368;2024-01-15T03:54:11;98053.50;;;-1.50;63.94
84865;BME280;75122;41.650;25.368;2024-01-15T03:56:36;98042.63;;;-1.44;63.67
84865;BME280;75122;41.650;25.368;2024-01-15T03:59:02;98043.53;;;-1.36;63.83
84865;BME280;75122;41.650;25.368;2024-01-15T04:01:28;98045.13;;;-1.35;63.57
84865;BME280;75122;41.650;25.368;2024-01-15T04:03:54;98041.78;;;-1.36;64.38
84865;BME280;75122;41.650;25.368;2024-01-15T04:06:20;98038.88;;;-1.33;64.43
84865;BME280;75122;41.650;25.368;2024-01-15T04:08:45;98045.84;;;-1.27;64.32
84865;BME280;75122;41.650;25.368;2024-01-15T04:11:11;98043.31;;;-1.27;65.47
84865;BME280;75122;41.650;25.368;2024-01-15T04:13:36;98045.34;;;-1.22;64.14
84865;BME280;75122;41.650;25.368;2024-01-15T04:16:01;98055.16;;;-1.19;64.29
84865;BME280;75122;41.650;25.368;2024-01-15T04:18:28;98059.88;;;-1.31;64.08
84865;BME280;75122;41.650;25.368;2024-01-15T04:20:54;98061.91;;;-1.26;63.63
84865;BME280;75122;41.650;25.368;2024-01-15T04:23:20;98056.63;;;-1.25;63.86
84865;BME280;75122;41.650;25.368;2024-01-15T04:25:45;98058.56;;;-1.27;64.09
84865;BME280;75122;41.650;25.368;2024-01-15T04:28:11;98054.28;;;-1.26;64.12
84865;BME280;75122;41.650;25.368;2024-01-15T04:30:37;98057.19;;;-1.29;64.29
84865;BME280;75122;41.650;25.368;2024-01-15T04:33:02;98052.69;;;-1.27;64.64
84865;BME280;75122;41.650;25.368;2024-01-15T04:35:28;98051.75;;;-1.26;64.79
84865;BME280;75122;41.650;25.368;2024-01-15T04:37:53;98055.16;;;-1.19;64.62
84865;BME280;75122;41.650;25.368;2024-01-15T04:40:19;98056.47;;;-1.23;64.79
84865;BME280;75122;41.650;25.368;2024-01-15T04:42:44;98059.09;;;-1.31;65.19
84865;BME280;75122;41.650;25.368;2024-01-15T04:45:12;98054.91;;;-1.47;65.16
84865;BME280;75122;41.650;25.368;2024-01-15T04:47:38;98050.13;;;-1.42;64.02
84865;BME280;75122;41.650;25.368;2024-01-15T04:50:04;98056.16;;;-1.43;64.42
84865;BME280;75122;41.650;25.368;2024-01-15T04:52:30;98055.53;;;-1.45;63.30
84865;BME280;75122;41.650;25.368;2024-01-15T04:54:56;98057.31;;;-1.46;63.85
84865;BME280;75122;41.650;25.368;2024-01-15T04:57:21;98061.75;;;-1.48;64.12
84865;BME280;75122;41.650;25.368;2024-01-15T04:59:46;98053.16;;;-1.47;63.75
84865;BME280;75122;41.650;25.368;2024-01-15T05:02:12;98070.53;;;-1.50;63.97
84865;BME280;75122;41.650;25.368;2024-01-15T05:04:37;98081.59;;;-1.97;65.49
84865;BME280;75122;41.650;25.368;2024-01-15T05:07:03;98068.84;;;-1.89;64.52
84865;BME280;75122;41.650;25.368;2024-01-15T05:09:28;98076.63;;;-1.82;64.43
84865;BME280;75122;41.650;25.368;2024-01-15T05:11:54;98068.31;;;-1.76;63.53
84865;BME280;75122;41.650;25.368;2024-01-15T05:14:19;98060.31;;;-1.73;63.32
84865;BME280;75122;41.650;25.368;2024-01-15T05:16:48;98059.38;;;-1.72;63.67
84865;BME280;75122;41.650;25.368;2024-01-15T05:19:14;98048.41;;;-1.72;63.58
84865;BME280;75122;41.650;25.368;2024-01-15T05:21:40;98039.78;;;-1.86;65.88
84865;BME280;75122;41.650;25.368;2024-01-15T05:24:05;98035.19;;;-1.91;66.23
84865;BME280;75122;41.650;25.368;2024-01-15T05:26:31;98035.28;;;-2.07;66.14
84865;BME280;75122;41.650;25.368;2024-01-15T05:28:56;98029.25;;;-2.45;67.08
84865;BME280;75122;41.650;25.368;2024-01-15T05:31:22;98034.75;;;-2.72;68.13
84865;BME280;75122;41.650;25.368;2024-01-15T05:33:48;98026.63;;;-3.39;69.95
84865;BME280;75122;41.650;25.368;2024-01-15T05:36:13;98040.25;;;-3.15;70.05
84865;BME280;75122;41.650;25.368;2024-01-15T05:38:38;98050.22;;;-3.06;69.21
84865;BME280;75122;41.650;25.368;2024-01-15T05:41:05;98053.53;;;-2.97;69.51
84865;BME280;75122;41.650;25.368;2024-01-15T05:43:30;98052.88;;;-2.83;68.80
84865;BME280;75122;41.650;25.368;2024-01-15T05:45:55;98051.44;;;-2.77;69.93
84865;BME280;75122;41.650;25.368;2024-01-15T05:48:21;98035.22;;;-2.68;67.72
84865;BME280;75122;41.650;25.368;2024-01-15T05:50:46;98030.53;;;-2.49;68.99
84865;BME280;75122;41.650;25.368;2024-01-15T05:53:12;98027.19;;;-2.41;66.76
84865;BME280;75122;41.650;25.368;2024-01-15T05:55:37;98023.53;;;-2.39;67.72
84865;BME280;75122;41.650;25.368;2024-01-15T05:58:03;98030.34;;;-2.39;67.51
84865;BME280;75122;41.650;25.368;2024-01-15T06:00:29;98023.03;;;-2.42;68.84
84865;BME280;75122;41.650;25.368;2024-01-15T06:02:54;98017.66;;;-2.39;67.47
84865;BME280;75122;41.650;25.368;2024-01-15T06:05:20;98023.66;;;-2.32;66.82
84865;BME280;75122;41.650;25.368;2024-01-15T06:07:45;98038.59;;;-2.37;67.09
84865;BME280;75122;41.650;25.368;2024-01-15T06:10:11;98035.94;;;-2.44;67.48
84865;BME280;75122;41.650;25.368;2024-01-15T06:12:36;98040.34;;;-2.38;67.61
84865;BME280;75122;41.650;25.368;2024-01-15T06:15:02;98031.56;;;-2.27;68.11
84865;BME280;75122;41.650;25.368;2024-01-15T06:17:27;98028.16;;;-2.11;66.74
84865;BME280;75122;41.650;25.368;2024-01-15T06:19:53;98034.03;;;-2.11;67.56
84865;BME280;75122;41.650;25.368;2024-01-15T06:22:18;98031.56;;;-1.96;67.58
84865;BME280;75122;41.650;25.368;2024-01-15T06:24:44;98032.41;;;-1.81;67.00
84865;BME280;75122;41.650;25.368;2024-01-15T06:27:09;98033.16;;;-1.72;67.62
84865;BME280;75122;41.650;25.368;2024-01-15T06:29:37;98036.03;;;-1.75;67.60
84865;BME280;75122;41.650;25.368;2024-01-15T06:32:03;98039.38;;;-1.75;67.45
84865;BME280;75122;41.650;25.368;2024-01-15T06:34:29;98037.88;;;-1.69;67.51
84865;BME280;75122;41.650;25.368;2024-01-15T06:36:54;98035.41;;;-1.77;67.06
84865;BME280;75122;41.650;25.368;2024-01-15T06:39:19;98034.91;;;-1.96;67.95
84865;BME280;75122;41.650;25.368;2024-01-15T06:41:45;98036.19;;;-2.00;67.68
84865;BME280;75122;41.650;25.368;2024-01-15T06:44:11;98023.72;;;-1.86;68.36
84865;BME280;75122;41.650;25.368;2024-01-15T06:46:36;98029.81;;;-1.73;67.52
84865;BME280;75122;41.650;25.368;2024-01-15T06:49:02;98034.53;;;-1.62;67.10
84865;BME280;75122;41.650;25.368;2024-01-15T06:51:28;98028.84;;;-1.49;67.14
84865;BME280;75122;41.650;25.368;2024-01-15T06:53:54;98023.69;;;-1.41;66.86
84865;BME280;75122;41.650;25.368;2024-01-15T06:56:19;98025.41;;;-1.19;66.80
84865;BME280;75122;41.650;25.368;2024-01-15T06:58:45;98020.69;;;-1.07;66.31
84865;BME280;75122;41.650;25.368;2024-01-15T07:01:10;98010.00;;;-1.03;66.63
84865;BME280;75122;41.650;25.368;2024-01-15T07:03:35;98018.00;;;-0.91;67.01
84865;BME280;75122;41.650;25.368;2024-01-15T07:06:01;98015.34;;;-0.83;66.93
84865;BME280;75122;41.650;25.368;2024-01-15T07:08:26;98025.28;;;-0.73;67.39
84865;BME280;75122;41.650;25.368;2024-01-15T07:10:52;98027.41;;;-0.62;68.62
84865;BME280;75122;41.650;25.368;2024-01-15T07:13:17;98022.84;;;-0.81;68.17
84865;BME280;75122;41.650;25.368;2024-01-15T07:15:43;98020.44;;;-0.68;67.95
84865;BME280;75122;41.650;25.368;2024-01-15T07:18:08;98031.78;;;-0.85;68.24
84865;BME280;75122;41.650;25.368;2024-01-15T07:20:33;98016.94;;;-0.67;68.95
84865;BME280;75122;41.650;25.368;2024-01-15T07:22:59;98028.44;;;-0.71;69.35
84865;BME280;75122;41.650;25.368;2024-01-15T07:25:25;98024.81;;;-0.33;69.41
84865;BME280;75122;41.650;25.368;2024-01-15T07:27:51;98020.63;;;-0.05;68.68
84865;BME280;75122;41.650;25.368;2024-01-15T07:30:17;98017.63;;;0.28;69.43
84865;BME280;75122;41.650;25.368;2024-01-15T07:32:42;98014.56;;;0.60;68.79
84865;BME280;75122;41.650;25.368;2024-01-15T07:35:08;98023.03;;;0.88;68.13
84865;BME280;75122;41.650;25.368;2024-01-15T07:37:33;98014.44;;;0.96;63.96
84865;BME280;75122;41.650;25.368;2024-01-15T07:39:59;98012.81;;;0.88;63.82
84865;BME280;75122;41.650;25.368;2024-01-15T07:42:25;98008.44;;;0.82;63.82
84865;BME280;75122;41.650;25.368;2024-01-15T07:44:50;97998.75;;;0.71;64.77
84865;BME280;75122;41.650;25.368;2024-01-15T07:47:16;97999.03;;;0.89;63.96
84865;BME280;75122;41.650;25.368;2024-01-15T07:49:42;97999.34;;;1.01;66.04
84865;BME280;75122;41.650;25.368;2024-01-15T07:52:08;97988.13;;;1.02;63.78
84865;BME280;75122;41.650;25.368;2024-01-15T07:54:33;97985.22;;;1.05;63.70
84865;BME280;75122;41.650;25.368;2024-01-15T07:57:00;97996.97;;;1.00;64.12
84865;BME280;75122;41.650;25.368;2024-01-15T07:59:26;97991.38;;;0.89;64.48
84865;BME280;75122;41.650;25.368;2024-01-15T08:01:52;97989.22;;;0.86;64.58
84865;BME280;75122;41.650;25.368;2024-01-15T08:04:18;97987.75;;;0.77;64.22
84865;BME280;75122;41.650;25.368;2024-01-15T08:06:45;97992.66;;;0.72;65.13
84865;BME280;75122;41.650;25.368;2024-01-15T08:09:11;97992.72;;;0.85;64.81
84865;BME280;75122;41.650;25.368;2024-01-15T08:11:39;97994.50;;;1.13;64.74
84865;BME280;75122;41.650;25.368;2024-01-15T08:14:05;97992.00;;;0.91;64.84
84865;BME280;75122;41.650;25.368;2024-01-15T08:16:30;97981.56;;;1.21;64.83
84865;BME280;75122;41.650;25.368;2024-01-15T08:18:56;97983.84;;;1.50;64.91
84865;BME280;75122;41.650;25.368;2024-01-15T08:21:21;97983.38;;;1.81;65.66
84865;BME280;75122;41.650;25.368;2024-01-15T08:23:47;97979.88;;;2.15;64.40
84865;BME280;75122;41.650;25.368;2024-01-15T08:26:12;97972.63;;;2.25;63.09
84865;BME280;75122;41.650;25.368;2024-01-15T08:28:38;97961.22;;;2.47;63.11
84865;BME280;75122;41.650;25.368;2024-01-15T08:31:03;97961.78;;;2.95;63.96
84865;BME280;75122;41.650;25.368;2024-01-15T08:33:29;97955.88;;;3.46;61.05
84865;BME280;75122;41.650;25.368;2024-01-15T08:35:54;97959.78;;;3.93;60.54
84865;BME280;75122;41.650;25.368;2024-01-15T08:38:20;97958.59;;;4.27;57.09
84865;BME280;75122;41.650;25.368;2024-01-15T08:40:46;97954.19;;;4.58;56.89
84865;BME280;75122;41.650;25.368;2024-01-15T08:43:11;97957.09;;;4.44;53.60
84865;BME280;75122;41.650;25.368;2024-01-15T08:45:36;97948.06;;;4.35;55.75
84865;BME280;75122;41.650;25.368;2024-01-15T08:48:02;97955.41;;;4.81;55.09
84865;BME280;75122;41.650;25.368;2024-01-15T08:50:28;97949.13;;;5.13;53.18
84865;BME280;75122;41.650;25.368;2024-01-15T08:52:54;97943.66;;;5.57;54.13
84865;BME280;75122;41.650;25.368;2024-01-15T08:55:20;97940.81;;;5.95;51.83
84865;BME280;75122;41.650;25.368;2024-01-15T08:57:48;97935.34;;;6.03;50.87
84865;BME280;75122;41.650;25.368;2024-01-15T09:00:13;97937.56;;;6.00;49.52
84865;BME280;75122;41.650;25.368;2024-01-15T09:02:39;97929.09;;;6.11;50.31
84865;BME280;75122;41.650;25.368;2024-01-15T09:05:05;97929.31;;;6.09;49.13
84865;BME280;75122;41.650;25.368;2024-01-15T09:07:32;97927.59;;;6.03;50.23
84865;BME280;75122;41.650;25.368;2024-01-15T09:09:57;97929.53;;;6.08;50.26
84865;BME280;75122;41.650;25.368;2024-01-15T09:12:25;97915.34;;;6.17;50.15
84865;BME280;75122;41.650;25.368;2024-01-15T09:14:50;97917.16;;;6.40;49.73
84865;BME280;75122;41.650;25.368;2024-01-15T09:17:17;97915.22;;;6.24;47.62
84865;BME280;75122;41.650;25.368;2024-01-15T09:19:42;97912.22;;;6.50;49.09
84865;BME280;75122;41.650;25.368;2024-01-15T09:22:08;97906.28;;;6.61;47.68
84865;BME280;75122;41.650;25.368;2024-01-15T09:24:33;97906.06;;;6.74;48.92
84865;BME280;75122;41.650;25.368;2024-01-15T09:26:59;97890.16;;;6.42;46.03
84865;BME280;75122;41.650;25.368;2024-01-15T09:29:25;97878.72;;;6.73;47.85
84865;BME280;75122;41.650;25.368;2024-01-15T09:31:50;97866.44;;;6.92;46.79
84865;BME280;75122;41.650;25.368;2024-01-15T09:34:17;97874.69;;;7.17;48.38
84865;BME280;75122;41.650;25.368;2024-01-15T09:36:46;97869.53;;;7.45;47.41
84865;BME280;75122;41.650;25.368;2024-01-15T09:39:12;97861.31;;;7.60;45.14
84865;BME280;75122;41.650;25.368;2024-01-15T09:41:38;97858.59;;;7.83;45.97
84865;BME280;75122;41.650;25.368;2024-01-15T09:44:04;97861.00;;;7.90;44.37
84865;BME280;75122;41.650;25.368;2024-01-15T09:46:33;97843.31;;;7.98;43.74
84865;BME280;75122;41.650;25.368;2024-01-15T09:48:59;97833.31;;;8.02;43.74
84865;BME280;75122;41.650;25.368;2024-01-15T09:51:25;97831.59;;;8.08;43.23
84865;BME280;75122;41.650;25.368;2024-01-15T09:53:50;97836.28;;;8.11;43.09
84865;BME280;75122;41.650;25.368;2024-01-15T09:56:16;97832.28;;;8.20;45.03
84865;BME280;75122;41.650;25.368;2024-01-15T09:58:42;97834.25;;;8.13;42.90
84865;BME280;75122;41.650;25.368;2024-01-15T10:01:08;97822.19;;;7.85;44.25
84865;BME280;75122;41.650;25.368;2024-01-15T10:03:35;97816.31;;;7.89;45.68
84865;BME280;75122;41.650;25.368;2024-01-15T10:06:04;97816.09;;;7.91;45.79
84865;BME280;75122;41.650;25.368;2024-01-15T10:08:29;97808.66;;;7.78;44.40
84865;BME280;75122;41.650;25.368;2024-01-15T10:10:55;97807.09;;;7.93;44.58
84865;BME280;75122;41.650;25.368;2024-01-15T10:13:20;97803.47;;;8.11;44.90
84865;BME280;75122;41.650;25.368;2024-01-15T10:15:46;97792.38;;;7.94;43.55
84865;BME280;75122;41.650;25.368;2024-01-15T10:18:15;97793.72;;;7.96;45.13
84865;BME280;75122;41.650;25.368;2024-01-15T10:20:40;97795.97;;;7.93;43.91
84865;BME280;75122;41.650;25.368;2024-01-15T10:23:06;97788.16;;;8.05;44.50
84865;BME280;75122;41.650;25.368;2024-01-15T10:25:32;97790.66;;;8.16;43.69
84865;BME280;75122;41.650;25.368;2024-01-15T10:28:02;97788.47;;;8.08;43.92
84865;BME280;75122;41.650;25.368;2024-01-15T10:30:28;97787.50;;;8.14;44.06
84865;BME280;75122;41.650;25.368;2024-01-15T10:33:00;97778.56;;;8.05;44.49
84865;BME280;75122;41.650;25.368;2024-01-15T10:35:35;97765.13;;;8.03;44.09
84865;BME280;75122;41.650;25.368;2024-01-15T10:38:01;97765.25;;;8.13;45.14
84865;BME280;75122;41.650;25.368;2024-01-15T10:40:28;97755.06;;;7.68;43.37
84865;BME280;75122;41.650;25.368;2024-01-15T10:42:53;97755.06;;;7.68;44.92
84865;BME280;75122;41.650;25.368;2024-01-15T10:45:19;97758.41;;;7.69;47.16
84865;BME280;75122;41.650;25.368;2024-01-15T10:47:45;97757.50;;;7.75;46.15
84865;BME280;75122;41.650;25.368;2024-01-15T10:50:11;97750.34;;;7.82;46.63
84865;BME280;75122;41.650;25.368;2024-01-15T10:52:38;97749.06;;;8.01;44.68
84865;BME280;75122;41.650;25.368;2024-01-15T10:55:07;97743.50;;;8.09;44.92
84865;BME280;75122;41.650;25.368;2024-01-15T10:57:34;97752.78;;;8.27;45.28
84865;BME280;75122;41.650;25.368;2024-01-15T11:00:00;97746.59;;;8.45;45.55
84865;BME280;75122;41.650;25.368;2024-01-15T11:02:28;97727.81;;;8.54;44.84
84865;BME280;75122;41.650;25.368;2024-01-15T11:04:53;97737.59;;;8.74;45.20
84865;BME280;75122;41.650;25.368;2024-01-15T11:07:21;97731.75;;;9.05;43.96
84865;BME280;75122;41.650;25.368;2024-01-15T11:09:47;97721.28;;;9.54;44.03
84865;BME280;75122;41.650;25.368;2024-01-15T11:12:13;97723.84;;;9.86;41.74
84865;BME280;75122;41.650;25.368;2024-01-15T11:14:48;97719.75;;;9.95;39.05
84865;BME280;75122;41.650;25.368;2024-01-15T11:17:15;97711.53;;;10.13;40.58
84865;BME280;75122;41.650;25.368;2024-01-15T11:24:54;97708.34;;;10.43;37.81
84865;BME280;75122;41.650;25.368;2024-01-15T11:27:40;97695.09;;;10.34;39.20
84865;BME280;75122;41.650;25.368;2024-01-15T11:30:11;97704.06;;;10.16;38.34
84865;BME280;75122;41.650;25.368;2024-01-15T11:32:37;97688.91;;;9.93;39.15
84865;BME280;75122;41.650;25.368;2024-01-15T11:35:07;97689.97;;;9.60;40.65
84865;BME280;75122;41.650;25.368;2024-01-15T11:42:48;97692.03;;;9.21;39.58
84865;BME280;75122;41.650;25.368;2024-01-15T11:45:19;97687.47;;;9.02;38.77
84865;BME280;75122;41.650;25.368;2024-01-15T11:50:14;97687.44;;;8.75;40.55
84865;BME280;75122;41.650;25.368;2024-01-15T11:52:44;97683.13;;;8.80;41.14
84865;BME280;75122;41.650;25.368;2024-01-15T11:55:34;97680.56;;;8.59;40.68
84865;BME280;75122;41.650;25.368;2024-01-15T11:58:01;97678.38;;;8.72;40.48
84865;BME280;75122;41.650;25.368;2024-01-15T12:00:28;97667.69;;;8.64;39.52
84865;BME280;75122;41.650;25.368;2024-01-15T12:02:53;97662.28;;;8.65;39.62
84865;BME280;75122;41.650;25.368;2024-01-15T12:05:20;97664.25;;;8.58;39.77
84865;BME280;75122;41.650;25.368;2024-01-15T12:07:48;97681.34;;;8.59;39.50
84865;BME280;75122;41.650;25.368;2024-01-15T12:10:18;97674.13;;;8.61;40.62
84865;BME280;75122;41.650;25.368;2024-01-15T12:15:35;97653.41;;;8.56;39.48
84865;BME280;75122;41.650;25.368;2024-01-15T12:18:02;97649.00;;;8.57;39.44
84865;BME280;75122;41.650;25.368;2024-01-15T12:20:32;97654.19;;;8.57;39.59
84865;BME280;75122;41.650;25.368;2024-01-15T12:22:59;97655.25;;;8.61;38.81
84865;BME280;75122;41.650;25.368;2024-01-15T12:25:25;97651.63;;;8.62;39.68
84865;BME280;75122;41.650;25.368;2024-01-15T12:27:53;97654.75;;;8.64;39.70
84865;BME280;75122;41.650;25.368;2024-01-15T12:30:18;97644.94;;;8.66;40.27
84865;BME280;75122;41.650;25.368;2024-01-15T12:32:44;97648.59;;;8.70;39.68
84865;BME280;75122;41.650;25.368;2024-01-15T12:35:10;97636.00;;;8.73;40.85
84865;BME280;75122;41.650;25.368;2024-01-15T12:37:37;97630.91;;;8.83;39.84
84865;BME280;75122;41.650;25.368;2024-01-15T12:40:04;97622.78;;;8.75;39.37
84865;BME280;75122;41.650;25.368;2024-01-15T12:42:33;97633.13;;;8.75;40.01
84865;BME280;75122;41.650;25.368;2024-01-15T12:45:03;97620.72;;;8.72;40.20
84865;BME280;75122;41.650;25.368;2024-01-15T12:47:30;97623.28;;;8.72;38.73
84865;BME280;75122;41.650;25.368;2024-01-15T12:49:57;97624.59;;;8.74;39.09
84865;BME280;75122;41.650;25.368;2024-01-15T12:52:22;97623.81;;;8.74;38.96
84865;BME280;75122;41.650;25.368;2024-01-15T12:54:49;97626.16;;;8.75;38.74
84865;BME280;75122;41.650;25.368;2024-01-15T12:57:14;97625.09;;;8.71;38.90
84865;BME280;75122;41.650;25.368;2024-01-15T12:59:40;97615.47;;;8.67;39.83
84865;BME280;75122;41.650;25.368;2024-01-15T13:02:05;97611.88;;;8.68;39.48
84865;BME280;75122;41.650;25.368;2024-01-15T13:04:31;97612.22;;;8.76;38.04